LNFIK ENNO-ENTO
Flight info
| Callsign | LNFIK |
|---|---|
| Flight time | N/A |
| Altitude | 7000 |
| Route | DCT BAPTO |
| Aircraft | PA24/L-VGD/C |
Departure
| Time | 2026-05-04 12:05 |
|---|---|
| Airport | Notodden Airport (ENNO) |
Arrival
| Time | N/A |
|---|---|
| Airport | Sandefjord Airport, Torp (ENTO) |
| Time | Latitude | Longitude | Altitude | Speed | Heading |
|---|---|---|---|---|---|
| 2026-05-04 11:57 | 59.56399 | 9.21945 | 59 ft | 0 kts | 309° |
| 2026-05-04 12:01 | 59.56413 | 9.21920 | 60 ft | 3 kts | 304° |
| 2026-05-04 12:01 | 59.56415 | 9.21891 | 59 ft | 0 kts | 268° |
| 2026-05-04 12:03 | 59.56415 | 9.21885 | 60 ft | 5 kts | 268° |
| 2026-05-04 12:03 | 59.56383 | 9.21812 | 62 ft | 6 kts | 217° |
| 2026-05-04 12:04 | 59.56360 | 9.21747 | 63 ft | 7 kts | 291° |
| 2026-05-04 12:04 | 59.56484 | 9.21419 | 67 ft | 64 kts | 306° |
| 2026-05-04 12:04 | 59.56789 | 9.20632 | 274 ft | 72 kts | 301° |
| 2026-05-04 12:04 | 59.57108 | 9.19797 | 590 ft | 80 kts | 304° |
| 2026-05-04 12:05 | 59.57425 | 9.18872 | 975 ft | 85 kts | 272° |
| 2026-05-04 12:05 | 59.57081 | 9.17944 | 1251 ft | 100 kts | 197° |
| 2026-05-04 12:05 | 59.56433 | 9.18518 | 1541 ft | 118 kts | 130° |
| 2026-05-04 12:05 | 59.56183 | 9.20155 | 1949 ft | 131 kts | 104° |
| 2026-05-04 12:06 | 59.55988 | 9.21921 | 2401 ft | 132 kts | 102° |
| 2026-05-04 12:06 | 59.55753 | 9.23697 | 2754 ft | 137 kts | 107° |
| 2026-05-04 12:06 | 59.55466 | 9.25461 | 3150 ft | 133 kts | 110° |
| 2026-05-04 12:06 | 59.55176 | 9.27204 | 3488 ft | 137 kts | 110° |
| 2026-05-04 12:07 | 59.54865 | 9.28964 | 3871 ft | 136 kts | 111° |
| 2026-05-04 12:07 | 59.54557 | 9.30720 | 4255 ft | 136 kts | 111° |
| 2026-05-04 12:07 | 59.54254 | 9.32491 | 4632 ft | 137 kts | 111° |
| 2026-05-04 12:07 | 59.53923 | 9.34247 | 4983 ft | 137 kts | 114° |
| 2026-05-04 12:08 | 59.53577 | 9.36023 | 5278 ft | 140 kts | 114° |
| 2026-05-04 12:08 | 59.53219 | 9.37787 | 5603 ft | 137 kts | 114° |
| 2026-05-04 12:08 | 59.52855 | 9.39547 | 5940 ft | 140 kts | 114° |
| 2026-05-04 12:08 | 59.52497 | 9.41312 | 6296 ft | 139 kts | 113° |
| 2026-05-04 12:09 | 59.52129 | 9.43074 | 6613 ft | 138 kts | 115° |
| 2026-05-04 12:09 | 59.51825 | 9.44831 | 7008 ft | 134 kts | 109° |
| 2026-05-04 12:09 | 59.51521 | 9.46642 | 7192 ft | 148 kts | 111° |
| 2026-05-04 12:09 | 59.51165 | 9.48716 | 7157 ft | 165 kts | 110° |
| 2026-05-04 12:10 | 59.50789 | 9.50934 | 7131 ft | 175 kts | 110° |
| 2026-05-04 12:10 | 59.50364 | 9.53221 | 7090 ft | 181 kts | 112° |
| 2026-05-04 12:10 | 59.49914 | 9.55540 | 7068 ft | 182 kts | 112° |
| 2026-05-04 12:10 | 59.49449 | 9.57874 | 7058 ft | 184 kts | 113° |
| 2026-05-04 12:11 | 59.48982 | 9.60235 | 6982 ft | 186 kts | 112° |
| 2026-05-04 12:11 | 59.48512 | 9.62605 | 6986 ft | 184 kts | 114° |
| 2026-05-04 12:11 | 59.48033 | 9.64926 | 6994 ft | 183 kts | 114° |
| 2026-05-04 12:11 | 59.47553 | 9.67243 | 6983 ft | 183 kts | 114° |
| 2026-05-04 12:12 | 59.47077 | 9.69563 | 6971 ft | 183 kts | 114° |
| 2026-05-04 12:12 | 59.46591 | 9.71873 | 6970 ft | 182 kts | 115° |
| 2026-05-04 12:12 | 59.46240 | 9.74252 | 6990 ft | 180 kts | 101° |
| 2026-05-04 12:12 | 59.46023 | 9.76658 | 7061 ft | 178 kts | 99° |
| 2026-05-04 12:13 | 59.45822 | 9.79049 | 7053 ft | 177 kts | 99° |
| 2026-05-04 12:14 | 59.44107 | 9.95543 | 6267 ft | 178 kts | 100° |
| 2026-05-04 12:15 | 59.43888 | 9.97930 | 6063 ft | 177 kts | 102° |
| 2026-05-04 12:15 | 59.43650 | 10.00264 | 5872 ft | 177 kts | 104° |
| 2026-05-04 12:15 | 59.43268 | 10.02574 | 5659 ft | 178 kts | 111° |
| 2026-05-04 12:15 | 59.42843 | 10.04844 | 5405 ft | 176 kts | 112° |
| 2026-05-04 12:16 | 59.42443 | 10.07102 | 5141 ft | 174 kts | 111° |
| 2026-05-04 12:16 | 59.42069 | 10.09343 | 4854 ft | 173 kts | 109° |
| 2026-05-04 12:16 | 59.41708 | 10.11584 | 4626 ft | 169 kts | 110° |
| 2026-05-04 12:16 | 59.41356 | 10.13769 | 4358 ft | 169 kts | 108° |
| 2026-05-04 12:17 | 59.41017 | 10.16007 | 4110 ft | 171 kts | 110° |
| 2026-05-04 12:17 | 59.40621 | 10.18182 | 3862 ft | 170 kts | 113° |
| 2026-05-04 12:17 | 59.40215 | 10.20379 | 3588 ft | 171 kts | 113° |
| 2026-05-04 12:17 | 59.39825 | 10.22568 | 3344 ft | 169 kts | 110° |